createdAt,value
2019-05-02T00:02:12.649Z,10.30
2019-05-02T00:04:55.915Z,10.30
2019-05-02T00:07:31.999Z,10.30
2019-05-02T00:15:15.225Z,9.90
2019-05-02T00:17:51.420Z,9.80
2019-05-02T00:23:03.119Z,9.70
2019-05-02T00:25:47.292Z,9.80
2019-05-02T00:28:23.757Z,9.80
2019-05-02T00:31:07.383Z,9.90
2019-05-02T00:33:58.411Z,10.00
2019-05-02T00:36:41.201Z,10.00
2019-05-02T00:39:13.619Z,10.00
2019-05-02T00:41:53.855Z,10.00
2019-05-02T00:44:46.919Z,10.00
2019-05-02T00:47:59.095Z,10.00
2019-05-02T00:50:40.576Z,10.00
2019-05-02T00:55:41.368Z,10.00
2019-05-02T00:58:17.131Z,9.90
2019-05-02T01:01:18.329Z,9.90
2019-05-02T01:03:52.106Z,9.80
2019-05-02T01:06:32.715Z,9.90
2019-05-02T01:09:01.094Z,9.90
2019-05-02T01:11:44.464Z,9.90
2019-05-02T01:14:31.869Z,9.80
2019-05-02T01:17:10.471Z,9.80
2019-05-02T01:19:38.085Z,9.60
2019-05-02T01:22:10.377Z,9.60
2019-05-02T01:24:50.668Z,9.50
2019-05-02T01:27:20.252Z,9.50
2019-05-02T01:30:27.432Z,9.50
2019-05-02T01:36:11.877Z,9.20
2019-05-02T01:38:55.899Z,9.30
2019-05-02T01:41:31.708Z,9.20
2019-05-02T01:44:15.476Z,9.20
2019-05-02T01:46:54.100Z,9.20
2019-05-02T01:49:35.071Z,9.20
2019-05-02T01:52:10.684Z,9.30
2019-05-02T01:54:53.348Z,9.30
2019-05-02T01:57:28.920Z,9.30
2019-05-02T02:00:11.491Z,9.20
2019-05-02T02:02:47.827Z,9.10
2019-05-02T02:05:32.252Z,9.10
2019-05-02T02:08:09.127Z,9.00
2019-05-02T02:10:56.474Z,9.10
2019-05-02T02:13:31.295Z,9.00
2019-05-02T02:16:13.909Z,8.90
2019-05-02T02:18:58.984Z,8.90
2019-05-02T02:21:47.096Z,8.80
2019-05-02T02:24:21.259Z,8.80
2019-05-02T02:27:03.565Z,8.80
2019-05-02T02:29:31.873Z,8.80
2019-05-02T02:32:20.135Z,8.60
2019-05-02T02:35:09.920Z,8.70
2019-05-02T02:37:53.061Z,8.80
2019-05-02T02:40:33.759Z,8.70
2019-05-02T02:43:32.172Z,8.70
2019-05-02T02:46:13.706Z,8.70
2019-05-02T02:48:55.890Z,8.80
2019-05-02T02:51:32.273Z,8.80
2019-05-02T02:54:15.249Z,8.90
2019-05-02T02:56:51.561Z,8.90
2019-05-02T02:59:34.507Z,8.80
2019-05-02T03:02:12.087Z,8.90
2019-05-02T03:04:53.816Z,8.80
2019-05-02T03:07:29.995Z,8.80
2019-05-02T03:10:12.436Z,8.80
2019-05-02T03:13:06.627Z,8.80
2019-05-02T03:18:26.917Z,8.80
2019-05-02T03:26:07.988Z,8.80
2019-05-02T03:28:57.239Z,8.80
2019-05-02T03:31:30.632Z,8.80
2019-05-02T03:36:39.932Z,8.80
2019-05-02T03:39:21.422Z,8.80
2019-05-02T03:41:55.745Z,8.90
2019-05-02T03:44:33.989Z,9.00
2019-05-02T03:47:09.969Z,9.00
2019-05-02T03:49:52.704Z,9.00
2019-05-02T03:52:29.088Z,9.00
2019-05-02T03:55:15.266Z,9.10
2019-05-02T03:57:43.655Z,9.10
2019-05-02T04:00:26.914Z,9.10
2019-05-02T04:03:10.458Z,9.10
2019-05-02T04:05:46.424Z,9.10
2019-05-02T04:08:30.976Z,9.10
2019-05-02T04:11:39.081Z,9.10
2019-05-02T04:14:36.586Z,9.10
2019-05-02T04:16:57.340Z,9.10
2019-05-02T04:19:28.589Z,9.10
2019-05-02T04:22:11.873Z,9.10
2019-05-02T04:24:54.456Z,9.10
2019-05-02T04:27:35.735Z,9.10
2019-05-02T04:30:11.269Z,9.00
2019-05-02T04:32:49.908Z,9.00
2019-05-02T04:35:38.180Z,8.90
2019-05-02T04:38:20.428Z,9.00
2019-05-02T04:40:51.681Z,9.00
2019-05-02T04:43:40.767Z,9.10
2019-05-02T04:46:22.158Z,9.10
2019-05-02T04:48:58.889Z,9.10
2019-05-02T04:51:37.961Z,9.20
2019-05-02T04:56:53.126Z,9.20
2019-05-02T05:02:01.739Z,9.30
2019-05-02T05:04:42.388Z,9.30
2019-05-02T05:07:22.262Z,9.30
2019-05-02T05:10:02.993Z,9.40
2019-05-02T05:15:01.144Z,9.50
2019-05-02T05:17:43.789Z,9.50
2019-05-02T05:20:15.685Z,9.60
2019-05-02T05:23:03.258Z,9.60
2019-05-02T05:25:37.948Z,9.70
2019-05-02T05:28:20.657Z,9.70
2019-05-02T05:30:51.937Z,9.80
2019-05-02T05:33:33.753Z,9.70
2019-05-02T05:36:19.811Z,9.80
2019-05-02T05:38:53.789Z,9.80
2019-05-02T05:41:37.664Z,9.80
2019-05-02T05:44:13.725Z,9.80
2019-05-02T05:46:42.678Z,9.90
2019-05-02T05:49:17.847Z,9.90
2019-05-02T05:52:02.284Z,9.90
2019-05-02T05:54:25.862Z,9.90
2019-05-02T05:57:12.083Z,9.90
2019-05-02T06:00:03.985Z,9.90
2019-05-02T06:05:45.466Z,10.00
2019-05-02T06:08:21.940Z,10.00
2019-05-02T06:11:04.899Z,10.00
2019-05-02T06:13:48.471Z,10.10
2019-05-02T06:16:28.182Z,10.20
2019-05-02T06:19:20.510Z,10.20
2019-05-02T06:24:30.058Z,10.20
2019-05-02T06:27:12.770Z,10.20
2019-05-02T06:30:02.880Z,10.30
2019-05-02T06:32:49.739Z,10.40
2019-05-02T06:35:23.398Z,10.40
2019-05-02T06:38:05.927Z,10.40
2019-05-02T06:40:44.742Z,10.40
2019-05-02T06:45:57.312Z,10.60
2019-05-02T06:48:32.914Z,10.60
2019-05-02T06:51:19.603Z,10.60
2019-05-02T06:53:54.597Z,10.70
2019-05-02T06:56:37.241Z,10.80
2019-05-02T06:59:18.616Z,10.90
2019-05-02T07:04:25.527Z,10.80
2019-05-02T07:07:13.357Z,10.90
2019-05-02T07:09:50.104Z,10.90
2019-05-02T07:15:01.637Z,11.20
2019-05-02T07:17:52.466Z,11.20
2019-05-02T07:23:04.831Z,11.40
2019-05-02T07:25:43.951Z,11.50
2019-05-02T07:28:26.474Z,11.60
2019-05-02T07:31:06.688Z,11.60
2019-05-02T07:33:50.961Z,11.80
2019-05-02T07:36:31.196Z,11.90
2019-05-02T07:39:14.394Z,11.90
2019-05-02T07:41:42.982Z,12.00
2019-05-02T07:44:27.114Z,12.10
2019-05-02T07:47:11.681Z,12.00
2019-05-02T07:49:47.604Z,12.00
2019-05-02T07:52:33.679Z,12.00
2019-05-02T07:55:10.179Z,12.00
2019-05-02T07:57:38.024Z,11.80
2019-05-02T08:00:07.172Z,11.90
2019-05-02T08:02:49.882Z,12.00
2019-05-02T08:05:21.640Z,12.00
2019-05-02T08:08:03.619Z,12.10
2019-05-02T08:10:48.700Z,12.00
2019-05-02T08:13:25.580Z,12.00
2019-05-02T08:16:22.416Z,12.00
2019-05-02T08:21:36.694Z,11.90
2019-05-02T08:24:07.642Z,11.90
2019-05-02T08:27:00.842Z,12.00
2019-05-02T08:29:30.617Z,12.00
2019-05-02T08:32:12.678Z,12.10
2019-05-02T08:34:51.669Z,12.10
2019-05-02T08:37:35.438Z,12.20
2019-05-02T08:40:12.955Z,12.40
2019-05-02T08:42:56.095Z,12.60
2019-05-02T08:45:32.955Z,12.70
2019-05-02T08:48:16.649Z,12.80
2019-05-02T08:50:53.232Z,12.90
2019-05-02T08:56:05.342Z,13.10
2019-05-02T08:58:44.861Z,13.00
2019-05-02T09:01:34.999Z,13.10
2019-05-02T09:04:05.033Z,13.20
2019-05-02T09:11:41.504Z,14.40
2019-05-02T09:14:24.684Z,14.80
2019-05-02T09:17:14.327Z,15.00
2019-05-02T09:19:59.596Z,14.90
2019-05-02T09:22:32.767Z,14.80
2019-05-02T09:25:12.847Z,14.50
2019-05-02T09:27:55.872Z,14.40
2019-05-02T09:30:35.561Z,14.40
2019-05-02T09:38:13.683Z,14.20
2019-05-02T09:43:29.203Z,14.30
2019-05-02T09:46:21.703Z,14.30
2019-05-02T09:49:11.975Z,14.60
2019-05-02T09:51:59.094Z,14.90
2019-05-02T09:54:32.135Z,14.90
2019-05-02T09:57:15.731Z,15.30
2019-05-02T09:59:55.727Z,15.60
2019-05-02T10:02:36.698Z,16.00
2019-05-02T10:05:12.751Z,16.50
2019-05-02T10:08:03.075Z,16.70
2019-05-02T10:10:37.031Z,17.00
2019-05-02T10:18:25.556Z,17.40
2019-05-02T10:20:58.758Z,17.40
2019-05-02T10:23:35.784Z,17.40
2019-05-02T10:28:53.514Z,17.80
2019-05-02T10:31:42.187Z,18.00
2019-05-02T10:34:18.668Z,18.30
2019-05-02T10:36:58.920Z,18.50
2019-05-02T10:42:12.452Z,19.10
2019-05-02T10:44:48.269Z,18.90
2019-05-02T10:47:30.365Z,18.80
2019-05-02T10:50:16.903Z,18.70
2019-05-02T10:53:11.212Z,18.70
2019-05-02T10:55:35.817Z,19.10
2019-05-02T10:58:26.143Z,19.30
2019-05-02T11:00:52.257Z,19.50
2019-05-02T11:03:47.218Z,19.20
2019-05-02T11:06:22.782Z,18.40
2019-05-02T11:09:06.541Z,18.10
2019-05-02T11:11:42.976Z,17.80
2019-05-02T11:14:36.384Z,17.40
2019-05-02T11:17:15.941Z,17.10
2019-05-02T11:20:17.666Z,17.00
2019-05-02T11:22:54.715Z,17.10
2019-05-02T11:28:08.694Z,17.20
2019-05-02T11:31:02.677Z,17.20
2019-05-02T11:33:53.614Z,17.50
2019-05-02T11:36:32.796Z,17.60
2019-05-02T11:39:24.692Z,17.50
2019-05-02T11:41:45.990Z,17.40
2019-05-02T11:44:35.462Z,17.20
2019-05-02T11:47:24.901Z,17.70
2019-05-02T11:49:59.760Z,18.20
2019-05-02T11:52:33.029Z,18.30
2019-05-02T11:55:18.763Z,18.00
2019-05-02T11:57:45.006Z,17.80
2019-05-02T12:00:32.361Z,17.70
2019-05-02T12:03:23.132Z,17.80
2019-05-02T12:06:01.834Z,17.80
2019-05-02T12:08:39.510Z,18.10
2019-05-02T12:11:25.335Z,18.10
2019-05-02T12:14:05.433Z,18.20
2019-05-02T12:16:54.168Z,18.30
2019-05-02T12:19:36.371Z,18.30
2019-05-02T12:22:16.985Z,18.20
2019-05-02T12:24:45.284Z,18.10
2019-05-02T12:27:31.866Z,17.70
2019-05-02T12:30:03.115Z,17.70
2019-05-02T12:32:46.992Z,17.70
2019-05-02T12:35:36.251Z,17.70
2019-05-02T12:38:24.217Z,17.60
2019-05-02T12:41:00.023Z,17.40
2019-05-02T12:43:47.755Z,17.50
2019-05-02T12:46:24.861Z,17.70
2019-05-02T12:48:59.683Z,18.00
2019-05-02T12:51:35.361Z,18.10
2019-05-02T12:54:17.692Z,17.90
2019-05-02T12:56:53.397Z,17.70
2019-05-02T12:59:37.181Z,17.40
2019-05-02T13:02:21.944Z,17.60
2019-05-02T13:05:13.152Z,17.50
2019-05-02T13:07:42.792Z,17.70
2019-05-02T13:13:05.409Z,17.90
2019-05-02T13:15:51.916Z,18.00
2019-05-02T13:18:34.793Z,18.00
2019-05-02T13:21:17.269Z,18.00
2019-05-02T13:24:14.856Z,17.80
2019-05-02T13:26:59.550Z,17.80
2019-05-02T13:29:35.149Z,17.60
2019-05-02T13:32:42.707Z,17.60
2019-05-02T13:35:17.857Z,17.60
2019-05-02T13:40:46.686Z,17.50
2019-05-02T13:43:18.658Z,17.60
2019-05-02T13:46:22.864Z,17.70
2019-05-02T13:54:54.800Z,17.80
2019-05-02T13:57:34.957Z,17.70
2019-05-02T14:07:48.257Z,18.00
2019-05-02T14:10:39.669Z,18.00
2019-05-02T14:13:17.870Z,18.20
2019-05-02T14:16:07.169Z,18.30
2019-05-02T14:18:50.136Z,18.30
2019-05-02T14:21:27.295Z,18.30
2019-05-02T14:24:09.309Z,18.10
2019-05-02T14:26:46.375Z,18.10
2019-05-02T14:32:02.692Z,18.00
2019-05-02T14:34:54.843Z,17.90
2019-05-02T14:37:43.145Z,17.90
2019-05-02T14:40:32.247Z,17.90
2019-05-02T14:45:43.908Z,17.70
2019-05-02T14:48:19.283Z,17.60
2019-05-02T14:51:01.733Z,17.50
2019-05-02T14:53:43.540Z,17.40
2019-05-02T14:56:46.264Z,17.40
2019-05-02T15:02:07.578Z,17.30
2019-05-02T15:04:49.842Z,17.30
2019-05-02T15:07:28.683Z,17.20
2019-05-02T15:21:36.743Z,16.80
2019-05-02T15:24:27.760Z,16.70
2019-05-02T15:27:13.645Z,16.50
2019-05-02T15:29:47.241Z,16.40
2019-05-02T15:32:57.863Z,16.40
2019-05-02T15:35:52.549Z,16.30
2019-05-02T15:38:37.088Z,16.10
2019-05-02T15:41:13.574Z,16.00
2019-05-02T15:43:56.221Z,16.00
2019-05-02T15:46:34.375Z,16.00
2019-05-02T15:49:17.354Z,16.00
2019-05-02T15:51:53.783Z,16.10
2019-05-02T15:54:36.731Z,16.10
2019-05-02T15:57:18.756Z,16.30
2019-05-02T15:59:57.499Z,16.20
2019-05-02T16:06:30.919Z,16.10
2019-05-02T16:08:54.554Z,16.00
2019-05-02T16:11:37.406Z,15.90
2019-05-02T16:14:22.582Z,15.70
2019-05-02T16:17:05.745Z,15.50
2019-05-02T16:19:46.755Z,15.40
2019-05-02T16:22:30.702Z,15.20
2019-05-02T16:25:07.018Z,14.80
2019-05-02T16:27:52.736Z,14.40
2019-05-02T16:30:31.836Z,14.20
2019-05-02T16:35:46.388Z,13.70
2019-05-02T16:38:22.122Z,13.60
2019-05-02T16:41:09.867Z,13.60
2019-05-02T16:43:37.828Z,13.50
2019-05-02T16:46:21.711Z,13.50
2019-05-02T16:49:15.687Z,13.50
2019-05-02T16:54:25.059Z,13.50
2019-05-02T16:57:01.706Z,13.50
2019-05-02T16:59:44.286Z,13.60
2019-05-02T17:02:21.855Z,13.60
2019-05-02T17:07:29.362Z,13.50
2019-05-02T17:10:29.951Z,13.50
2019-05-02T17:13:00.358Z,13.40
2019-05-02T17:15:43.884Z,13.30
2019-05-02T17:18:32.726Z,13.20
2019-05-02T17:21:16.354Z,13.20
2019-05-02T17:23:52.438Z,13.30
2019-05-02T17:29:03.339Z,13.20
2019-05-02T17:31:40.002Z,13.30
2019-05-02T17:34:23.025Z,13.20
2019-05-02T17:37:06.215Z,13.30
2019-05-02T17:39:46.068Z,13.30
2019-05-02T17:42:25.695Z,13.30
2019-05-02T17:47:36.124Z,13.30
2019-05-02T17:50:49.461Z,13.20
2019-05-02T17:53:25.001Z,13.20
2019-05-02T17:58:35.880Z,13.10
2019-05-02T18:01:33.327Z,13.20
2019-05-02T18:04:21.535Z,13.10
2019-05-02T18:09:35.032Z,13.20
2019-05-02T18:12:16.185Z,13.20
2019-05-02T18:17:27.451Z,13.20
2019-05-02T18:20:12.473Z,13.10
2019-05-02T18:22:52.027Z,13.10
2019-05-02T18:25:36.581Z,13.10
2019-05-02T18:28:26.592Z,13.10
2019-05-02T18:31:09.861Z,13.10
2019-05-02T18:33:48.783Z,13.10
2019-05-02T18:41:31.871Z,13.00
2019-05-02T18:44:21.897Z,13.00
2019-05-02T18:47:06.161Z,13.00
2019-05-02T18:49:48.407Z,13.10
2019-05-02T18:52:35.592Z,13.10
2019-05-02T18:55:01.892Z,13.10
2019-05-02T18:57:48.684Z,13.00
2019-05-02T19:00:27.482Z,13.00
2019-05-02T19:03:13.339Z,12.90
2019-05-02T19:06:03.403Z,12.90
2019-05-02T19:08:50.282Z,12.90
2019-05-02T19:11:31.419Z,12.90
2019-05-02T19:14:16.560Z,12.90
2019-05-02T19:16:52.109Z,12.90
2019-05-02T19:21:53.635Z,12.90
2019-05-02T19:24:34.890Z,12.90
2019-05-02T19:32:28.412Z,12.90
2019-05-02T19:35:06.930Z,12.90
2019-05-02T19:40:20.130Z,12.90
2019-05-02T19:43:07.820Z,12.90
2019-05-02T19:45:45.791Z,12.90
2019-05-02T19:48:14.106Z,12.90
2019-05-02T19:50:56.613Z,12.90
2019-05-02T19:53:33.260Z,12.90
2019-05-02T19:56:09.523Z,12.80
2019-05-02T19:58:46.835Z,12.80
2019-05-02T20:04:02.383Z,12.80
2019-05-02T20:06:51.465Z,12.80
2019-05-02T20:09:29.137Z,12.80
2019-05-02T20:12:11.657Z,12.70
2019-05-02T20:14:54.261Z,12.70
2019-05-02T20:17:29.845Z,12.70
2019-05-02T20:20:15.908Z,12.60
2019-05-02T20:22:52.444Z,12.60
2019-05-02T20:30:32.876Z,12.60
2019-05-02T20:33:16.403Z,12.60
2019-05-02T20:35:58.950Z,12.50
2019-05-02T20:38:27.893Z,12.50
2019-05-02T20:41:10.011Z,12.60
2019-05-02T20:43:52.714Z,12.60
2019-05-02T20:46:32.617Z,12.50
2019-05-02T20:49:01.978Z,12.50
2019-05-02T20:51:44.963Z,12.60
2019-05-02T20:54:23.826Z,12.50
2019-05-02T20:57:08.056Z,12.50
2019-05-02T20:59:36.461Z,12.50
2019-05-02T21:02:19.611Z,12.50
2019-05-02T21:04:54.545Z,12.40
2019-05-02T21:08:01.875Z,12.20
2019-05-02T21:10:41.671Z,12.20
2019-05-02T21:15:52.422Z,12.00
2019-05-02T21:18:35.836Z,12.00
2019-05-02T21:21:12.775Z,12.00
2019-05-02T21:23:55.774Z,12.00
2019-05-02T21:26:32.895Z,11.90
2019-05-02T21:29:16.797Z,11.90
2019-05-02T21:31:53.457Z,11.80
2019-05-02T21:34:36.064Z,11.80
2019-05-02T21:37:12.107Z,11.80
2019-05-02T21:39:39.746Z,11.90
2019-05-02T21:44:48.917Z,11.90
2019-05-02T21:47:32.563Z,11.90
2019-05-02T21:50:21.754Z,11.90
2019-05-02T21:53:22.046Z,11.80
2019-05-02T21:56:24.967Z,11.60
2019-05-02T21:59:12.356Z,11.60
2019-05-02T22:04:26.324Z,11.50
2019-05-02T22:07:08.896Z,11.40
2019-05-02T22:09:36.488Z,11.40
2019-05-02T22:12:18.697Z,11.30
2019-05-02T22:14:55.366Z,11.20
2019-05-02T22:17:37.728Z,11.10
2019-05-02T22:20:13.334Z,11.10
2019-05-02T22:22:56.138Z,11.10
2019-05-02T22:25:32.854Z,11.10
2019-05-02T22:28:16.014Z,11.10
2019-05-02T22:30:44.298Z,11.10
2019-05-02T22:33:12.580Z,11.10
2019-05-02T22:35:55.883Z,11.10
2019-05-02T22:41:32.753Z,11.10
2019-05-02T22:44:08.555Z,11.10
2019-05-02T22:46:52.940Z,11.00
2019-05-02T22:49:28.722Z,11.00
2019-05-02T22:54:39.287Z,11.00
2019-05-02T22:57:14.461Z,11.00
2019-05-02T22:59:58.069Z,10.90
2019-05-02T23:02:46.749Z,11.00
2019-05-02T23:05:29.016Z,11.00
2019-05-02T23:08:05.175Z,11.10
2019-05-02T23:10:47.631Z,11.00
2019-05-02T23:13:24.685Z,11.00
2019-05-02T23:16:06.967Z,11.10
2019-05-02T23:18:42.648Z,11.10
2019-05-02T23:21:25.219Z,11.10
2019-05-02T23:24:03.158Z,11.10
2019-05-02T23:29:42.555Z,11.10
2019-05-02T23:32:18.613Z,11.10
2019-05-02T23:35:02.127Z,11.10
2019-05-02T23:37:38.714Z,11.10
2019-05-02T23:47:42.216Z,11.10
2019-05-02T23:50:18.547Z,11.00
2019-05-02T23:53:02.288Z,11.00
2019-05-02T23:55:38.715Z,10.90
2019-05-02T23:58:22.629Z,10.90
